createdAt,value
2023-04-28T00:03:19.037Z,6.85
2023-04-28T00:07:22.576Z,6.97
2023-04-28T00:11:25.676Z,9.18
2023-04-28T00:15:30.726Z,7.72
2023-04-28T00:19:34.694Z,8.15
2023-04-28T00:23:38.134Z,6.25
2023-04-28T00:27:41.185Z,7.68
2023-04-28T00:31:46.451Z,9.75
2023-04-28T00:35:52.097Z,4.85
2023-04-28T00:40:00.782Z,9.35
2023-04-28T00:44:04.474Z,7.97
2023-04-28T00:48:09.407Z,8.77
2023-04-28T00:52:12.565Z,4.32
2023-04-28T00:56:16.804Z,7.85
2023-04-28T01:00:19.787Z,6.60
2023-04-28T01:04:26.475Z,4.70
2023-04-28T01:08:31.016Z,3.63
2023-04-28T01:12:35.832Z,5.60
2023-04-28T01:16:40.615Z,7.45
2023-04-28T01:20:45.122Z,8.27
2023-04-28T01:24:50.717Z,3.05
2023-04-28T01:28:54.648Z,6.32
2023-04-28T01:32:57.738Z,9.52
2023-04-28T01:37:01.356Z,6.28
2023-04-28T01:41:06.673Z,4.03
2023-04-28T01:45:11.519Z,7.18
2023-04-28T01:49:14.685Z,7.22
2023-04-28T01:53:20.644Z,3.97
2023-04-28T01:57:25.618Z,7.72
2023-04-28T02:01:30.878Z,6.68
2023-04-28T02:05:34.858Z,13.23
2023-04-28T02:09:37.787Z,6.78
2023-04-28T02:13:42.509Z,4.65
2023-04-28T02:17:46.018Z,10.23
2023-04-28T02:21:49.563Z,7.50
2023-04-28T02:26:02.923Z,10.27
2023-04-28T02:30:09.184Z,4.07
2023-04-28T02:34:12.065Z,4.63
2023-04-28T02:38:15.407Z,10.50
2023-04-28T02:42:18.769Z,3.47
2023-04-28T02:46:23.346Z,5.15
2023-04-28T02:50:26.746Z,6.43
2023-04-28T02:54:30.426Z,3.83
2023-04-28T02:58:33.497Z,8.77
2023-04-28T03:02:38.666Z,7.55
2023-04-28T03:06:42.571Z,6.13
2023-04-28T03:10:45.741Z,9.38
2023-04-28T03:14:48.683Z,6.70
2023-04-28T03:18:53.535Z,7.90
2023-04-28T03:22:56.777Z,6.15
2023-04-28T03:27:00.444Z,4.63
2023-04-28T03:31:03.688Z,6.72
2023-04-28T03:35:09.162Z,4.95
2023-04-28T03:39:12.449Z,6.85
2023-04-28T03:43:15.663Z,12.07
2023-04-28T03:47:18.910Z,4.97
2023-04-28T03:51:23.689Z,5.53
2023-04-28T03:55:27.490Z,6.70
2023-04-28T03:59:30.508Z,9.50
2023-04-28T04:03:34.138Z,4.65
2023-04-28T04:07:39.210Z,4.03
2023-04-28T04:11:42.473Z,12.88
2023-04-28T04:15:45.713Z,3.42
2023-04-28T04:19:49.313Z,5.78
2023-04-28T04:23:54.028Z,4.15
2023-04-28T04:27:57.479Z,6.38
2023-04-28T04:32:01.858Z,5.28
2023-04-28T04:36:05.528Z,5.07
2023-04-28T04:40:11.580Z,4.60
2023-04-28T04:44:14.705Z,5.72
2023-04-28T04:48:18.857Z,3.85
2023-04-28T04:52:22.209Z,7.63
2023-04-28T04:56:27.038Z,9.48
2023-04-28T05:00:30.221Z,5.00
2023-04-28T05:04:33.453Z,5.93
2023-04-28T05:08:37.572Z,8.27
2023-04-28T05:12:42.321Z,5.30
2023-04-28T05:16:45.494Z,4.25
2023-04-28T05:20:48.878Z,9.65
2023-04-28T05:24:52.092Z,9.55
2023-04-28T05:28:56.946Z,6.85
2023-04-28T05:33:01.113Z,6.72
2023-04-28T05:37:04.769Z,9.73
2023-04-28T05:41:07.776Z,3.95
2023-04-28T05:49:36.346Z,3.92
2023-04-28T05:53:39.181Z,6.75
2023-04-28T05:57:52.371Z,10.25
2023-04-28T06:01:58.111Z,3.33
2023-04-28T06:06:01.749Z,6.63
2023-04-28T06:10:06.087Z,6.22
2023-04-28T06:14:09.883Z,4.22
2023-04-28T06:18:16.360Z,6.47
2023-04-28T06:22:20.615Z,8.55
2023-04-28T06:26:24.007Z,6.35
2023-04-28T06:30:27.602Z,7.97
2023-04-28T06:34:33.272Z,3.88
2023-04-28T06:38:37.618Z,10.90
2023-04-28T06:42:40.949Z,4.93
2023-04-28T06:46:44.987Z,5.40
2023-04-28T06:50:49.779Z,6.75
2023-04-28T06:54:53.540Z,5.13
2023-04-28T06:58:57.476Z,6.53
2023-04-28T07:03:01.754Z,6.55
2023-04-28T07:07:08.386Z,4.72
2023-04-28T07:11:11.757Z,4.28
2023-04-28T07:15:14.690Z,8.27
2023-04-28T07:19:18.417Z,3.67
2023-04-28T07:23:22.900Z,5.10
2023-04-28T07:27:26.814Z,9.15
2023-04-28T07:31:30.901Z,8.68
2023-04-28T07:35:35.407Z,4.25
2023-04-28T07:39:40.711Z,5.43
2023-04-28T07:43:44.299Z,6.32
2023-04-28T07:47:48.649Z,3.83
2023-04-28T07:51:55.214Z,4.45
2023-04-28T07:56:01.175Z,8.18
2023-04-28T08:00:05.916Z,6.65
2023-04-28T08:04:09.198Z,2.63
2023-04-28T08:08:13.067Z,3.88
2023-04-28T08:12:18.221Z,3.97
2023-04-28T08:16:22.914Z,3.95
2023-04-28T08:20:26.601Z,5.82
2023-04-28T08:24:30.843Z,4.13
2023-04-28T08:28:36.562Z,7.45
2023-04-28T08:32:39.924Z,4.60
2023-04-28T08:36:42.813Z,6.93
2023-04-28T08:40:46.303Z,4.85
2023-04-28T08:44:53.361Z,8.13
2023-04-28T08:49:02.543Z,5.22
2023-04-28T08:53:06.253Z,6.43
2023-04-28T08:57:12.118Z,3.53
2023-04-28T09:01:16.958Z,2.58
2023-04-28T09:05:21.303Z,4.65
2023-04-28T09:09:27.512Z,5.40
2023-04-28T09:13:32.541Z,5.00
2023-04-28T09:17:50.838Z,9.65
2023-04-28T09:21:55.562Z,2.50
2023-04-28T09:26:01.014Z,7.68
2023-04-28T09:30:04.972Z,7.90
2023-04-28T09:34:09.466Z,5.25
2023-04-28T09:38:12.752Z,4.45
2023-04-28T09:42:34.827Z,3.83
2023-04-28T09:46:39.393Z,6.82
2023-04-28T09:50:43.854Z,6.22
2023-04-28T09:54:47.857Z,3.63
2023-04-28T09:58:53.744Z,4.25
2023-04-28T10:02:58.207Z,5.72
2023-04-28T10:07:03.384Z,5.88
2023-04-28T10:11:07.527Z,4.18
2023-04-28T10:15:14.213Z,3.80
2023-04-28T10:19:18.004Z,3.33
2023-04-28T10:23:58.064Z,4.20
2023-04-28T10:28:04.760Z,4.15
2023-04-28T10:32:26.081Z,4.85
2023-04-28T10:36:49.249Z,4.47
2023-04-28T10:40:56.087Z,6.50
2023-04-28T10:44:59.712Z,6.75
2023-04-28T10:49:03.042Z,9.23
2023-04-28T10:53:06.369Z,4.03
2023-04-28T10:57:23.211Z,4.03
2023-04-28T11:01:27.827Z,2.95
2023-04-28T11:05:32.035Z,4.15
2023-04-28T11:09:53.727Z,8.75
2023-04-28T11:14:34.270Z,3.97
2023-04-28T11:18:48.271Z,2.83
2023-04-28T11:22:55.084Z,3.85
2023-04-28T11:26:59.305Z,5.25
2023-04-28T11:31:13.517Z,5.15
2023-04-28T11:35:16.603Z,4.30
2023-04-28T11:39:28.663Z,7.85
2023-04-28T11:43:44.048Z,3.27
2023-04-28T11:47:51.554Z,12.00
2023-04-28T11:51:55.151Z,4.97
2023-04-28T11:56:08.074Z,3.78
2023-04-28T12:00:20.099Z,4.53
2023-04-28T12:04:33.139Z,6.10
2023-04-28T12:08:36.578Z,5.03
2023-04-28T12:12:49.846Z,14.88
2023-04-28T12:16:55.512Z,7.25
2023-04-28T12:20:59.911Z,3.85
2023-04-28T12:25:08.627Z,6.20
2023-04-28T12:29:13.954Z,5.22
2023-04-28T12:33:25.225Z,5.45
2023-04-28T12:37:29.879Z,6.28
2023-04-28T12:41:34.484Z,8.10
2023-04-28T12:45:38.897Z,6.65
2023-04-28T12:49:42.893Z,4.80
2023-04-28T12:53:47.825Z,7.45
2023-04-28T12:57:51.594Z,9.55
2023-04-28T13:01:55.679Z,7.85
2023-04-28T13:05:59.061Z,4.80
2023-04-28T13:10:03.711Z,5.85
2023-04-28T13:14:07.650Z,7.40
2023-04-28T13:18:10.601Z,9.10
2023-04-28T13:22:14.868Z,7.93
2023-04-28T13:26:21.343Z,9.27
2023-04-28T13:30:24.488Z,8.60
2023-04-28T13:34:28.058Z,7.47
2023-04-28T13:38:31.674Z,12.57
2023-04-28T13:42:36.250Z,7.50
2023-04-28T13:46:40.057Z,6.55
2023-04-28T13:50:44.368Z,9.13
2023-04-28T13:54:47.985Z,11.82
2023-04-28T13:58:54.208Z,9.70
2023-04-28T14:02:57.949Z,12.30
2023-04-28T14:07:01.677Z,9.15
2023-04-28T14:11:05.673Z,9.10
2023-04-28T14:15:12.317Z,10.77
2023-04-28T14:19:19.330Z,10.48
2023-04-28T14:23:23.199Z,12.48
2023-04-28T14:27:27.212Z,9.10
2023-04-28T14:31:34.712Z,9.32
2023-04-28T14:35:41.671Z,11.93
2023-04-28T14:39:46.330Z,9.82
2023-04-28T14:43:50.399Z,20.38
2023-04-28T14:47:55.317Z,16.55
2023-04-28T14:52:00.808Z,10.38
2023-04-28T14:56:17.780Z,10.73
2023-04-28T15:00:23.666Z,11.52
2023-04-28T15:04:32.717Z,12.18
2023-04-28T15:08:37.620Z,12.15
2023-04-28T15:12:43.039Z,9.73
2023-04-28T15:16:47.623Z,8.93
2023-04-28T15:20:52.792Z,11.13
2023-04-28T15:24:57.202Z,8.75
2023-04-28T15:29:02.231Z,10.07
2023-04-28T15:33:05.959Z,10.52
2023-04-28T15:37:41.783Z,9.40
2023-04-28T15:41:46.694Z,13.98
2023-04-28T15:45:52.088Z,11.15
2023-04-28T15:49:56.596Z,11.80
2023-04-28T15:54:01.937Z,8.52
2023-04-28T15:58:09.310Z,8.05
2023-04-28T16:02:12.896Z,11.75
2023-04-28T16:06:22.288Z,17.75
2023-04-28T16:10:27.810Z,10.10
2023-04-28T16:14:31.400Z,13.13
2023-04-28T16:18:35.673Z,8.27
2023-04-28T16:22:41.178Z,8.60
2023-04-28T16:26:48.661Z,8.43
2023-04-28T16:30:52.669Z,3.83
2023-04-28T16:34:59.080Z,5.03
2023-04-28T16:39:03.474Z,5.32
2023-04-28T16:43:09.016Z,4.28
2023-04-28T16:47:13.385Z,6.20
2023-04-28T16:51:17.170Z,6.70
2023-04-28T16:55:20.987Z,7.45
2023-04-28T16:59:32.377Z,9.02
2023-04-28T17:03:41.906Z,10.95
2023-04-28T17:07:48.203Z,13.63
2023-04-28T17:11:52.380Z,7.75
2023-04-28T17:16:01.898Z,10.38
2023-04-28T17:20:07.502Z,12.85
2023-04-28T17:24:10.982Z,8.32
2023-04-28T17:28:15.821Z,9.82
2023-04-28T17:32:21.681Z,12.18
2023-04-28T17:36:27.495Z,14.73
2023-04-28T17:40:32.330Z,11.63
2023-04-28T17:44:36.200Z,15.00
2023-04-28T17:48:41.394Z,13.57
2023-04-28T17:52:45.012Z,10.13
2023-04-28T17:56:49.642Z,12.65
2023-04-28T18:01:01.652Z,14.18
2023-04-28T18:05:08.558Z,11.53
2023-04-28T18:09:12.303Z,14.45
2023-04-28T18:13:18.128Z,15.85
2023-04-28T18:17:23.892Z,12.48
2023-04-28T18:21:28.920Z,15.40
2023-04-28T18:25:32.754Z,17.17
2023-04-28T18:29:40.720Z,12.00
2023-04-28T18:33:45.179Z,18.55
2023-04-28T18:37:53.376Z,19.75
2023-04-28T18:41:56.644Z,12.65
2023-04-28T18:46:04.891Z,12.80
2023-04-28T18:50:10.935Z,17.90
2023-04-28T18:54:17.302Z,16.17
2023-04-28T18:58:20.908Z,16.35
2023-04-28T19:02:25.830Z,17.58
2023-04-28T19:06:29.333Z,16.23
2023-04-28T19:10:33.744Z,18.02
2023-04-28T19:14:37.458Z,18.38
2023-04-28T19:18:42.504Z,19.35
2023-04-28T19:22:47.583Z,15.63
2023-04-28T19:26:53.145Z,25.58
2023-04-28T19:30:58.609Z,26.30
2023-04-28T19:35:02.815Z,17.98
2023-04-28T19:39:06.170Z,22.40
2023-04-28T19:43:11.630Z,16.92
2023-04-28T19:47:15.742Z,22.60
2023-04-28T19:51:18.904Z,21.17
2023-04-28T19:55:25.187Z,25.85
2023-04-28T19:59:32.077Z,29.25
2023-04-28T20:03:36.637Z,28.63
2023-04-28T20:07:42.543Z,26.20
2023-04-28T20:11:46.186Z,23.20
2023-04-28T20:15:50.909Z,24.08
2023-04-28T20:19:54.286Z,24.85
2023-04-28T20:23:57.766Z,24.45
2023-04-28T20:28:04.458Z,24.20
2023-04-28T20:32:11.169Z,23.65
2023-04-28T20:36:15.065Z,20.40
2023-04-28T20:40:18.741Z,22.70
2023-04-28T20:44:22.576Z,24.52
2023-04-28T20:48:28.427Z,26.30
2023-04-28T20:52:32.101Z,24.45
2023-04-28T20:56:36.340Z,26.83
2023-04-28T21:00:40.860Z,24.48
2023-04-28T21:04:45.995Z,31.40
2023-04-28T21:08:49.161Z,35.47
2023-04-28T21:12:52.524Z,25.45
2023-04-28T21:16:55.942Z,27.13
2023-04-28T21:21:01.025Z,26.40
2023-04-28T21:25:06.226Z,26.83
2023-04-28T21:29:10.439Z,30.17
2023-04-28T21:33:14.290Z,22.67
2023-04-28T21:37:19.395Z,21.98
2023-04-28T21:41:23.010Z,22.17
2023-04-28T21:45:26.874Z,22.40
2023-04-28T21:49:29.825Z,29.38
2023-04-28T21:53:34.620Z,18.42
2023-04-28T21:57:39.583Z,31.00
2023-04-28T22:01:44.270Z,24.33
2023-04-28T22:05:48.506Z,26.13
2023-04-28T22:09:53.933Z,36.35
2023-04-28T22:13:57.873Z,30.75
2023-04-28T22:18:01.807Z,46.33
2023-04-28T22:22:05.378Z,27.85
2023-04-28T22:26:13.002Z,43.38
2023-04-28T22:30:16.821Z,52.17
2023-04-28T22:34:21.605Z,29.10
2023-04-28T22:38:27.908Z,33.70
2023-04-28T22:42:32.826Z,42.22
2023-04-28T22:46:36.651Z,45.47
2023-04-28T22:50:41.075Z,47.40
2023-04-28T22:54:44.837Z,53.65
2023-04-28T22:58:49.446Z,44.35
2023-04-28T23:02:53.538Z,23.20
2023-04-28T23:06:56.572Z,45.60
2023-04-28T23:10:59.704Z,67.60
2023-04-28T23:15:04.540Z,44.25
2023-04-28T23:19:09.092Z,26.30
2023-04-28T23:23:12.244Z,12.73
2023-04-28T23:27:15.905Z,17.08
2023-04-28T23:31:22.505Z,22.80
2023-04-28T23:35:26.990Z,16.75
2023-04-28T23:39:31.034Z,12.88
2023-04-28T23:43:34.603Z,18.25
2023-04-28T23:47:40.473Z,21.55
2023-04-28T23:51:44.079Z,28.88
2023-04-28T23:55:49.816Z,28.30
2023-04-28T23:59:53.892Z,35.08
